createdAt,value
2018-04-22T00:00:01.000Z,978.54
2018-04-22T00:01:01.243Z,978.51
2018-04-22T00:02:01.484Z,978.51
2018-04-22T00:03:01.727Z,978.46
2018-04-22T00:04:01.970Z,978.50
2018-04-22T00:05:02.214Z,978.45
2018-04-22T00:06:02.457Z,978.46
2018-04-22T00:07:02.699Z,978.50
2018-04-22T00:08:02.940Z,978.46
2018-04-22T00:09:03.184Z,978.49
2018-04-22T00:10:03.432Z,978.48
2018-04-22T00:11:03.671Z,978.44
2018-04-22T00:12:03.913Z,978.44
2018-04-22T00:13:04.156Z,978.46
2018-04-22T00:14:04.399Z,978.50
2018-04-22T00:15:04.640Z,978.46
2018-04-22T00:16:04.886Z,978.47
2018-04-22T00:17:05.128Z,978.47
2018-04-22T00:18:05.372Z,978.46
2018-04-22T00:19:05.614Z,978.46
2018-04-22T00:20:05.858Z,978.47
2018-04-22T00:21:06.101Z,978.40
2018-04-22T00:22:06.345Z,978.44
2018-04-22T00:23:06.589Z,978.36
2018-04-22T00:24:06.830Z,978.41
2018-04-22T00:25:07.071Z,978.39
2018-04-22T00:26:07.314Z,978.33
2018-04-22T00:27:07.554Z,978.32
2018-04-22T00:28:07.797Z,978.31
2018-04-22T00:29:08.037Z,978.32
2018-04-22T00:30:08.284Z,978.29
2018-04-22T00:31:08.521Z,978.31
2018-04-22T00:32:08.765Z,978.27
2018-04-22T00:33:09.005Z,978.29
2018-04-22T00:34:09.249Z,978.28
2018-04-22T00:35:09.492Z,978.26
2018-04-22T00:36:09.736Z,978.23
2018-04-22T00:37:09.977Z,978.26
2018-04-22T00:38:10.223Z,978.26
2018-04-22T00:39:10.466Z,978.23
2018-04-22T00:40:10.709Z,978.20
2018-04-22T00:41:10.951Z,978.18
2018-04-22T00:42:11.193Z,978.15
2018-04-22T00:43:11.434Z,978.13
2018-04-22T00:44:11.674Z,978.13
2018-04-22T00:45:11.913Z,978.09
2018-04-22T00:46:12.163Z,978.11
2018-04-22T00:47:12.405Z,978.10
2018-04-22T00:48:12.648Z,978.10
2018-04-22T00:49:12.890Z,978.07
2018-04-22T00:50:13.133Z,978.08
2018-04-22T00:51:13.376Z,978.04
2018-04-22T00:52:13.616Z,978.05
2018-04-22T00:53:13.860Z,978.02
2018-04-22T00:54:14.103Z,978.03
2018-04-22T00:55:14.345Z,978.04
2018-04-22T00:56:14.588Z,978.01
2018-04-22T00:57:14.831Z,978.00
2018-04-22T00:58:15.070Z,978.00
2018-04-22T00:59:15.313Z,978.00
2018-04-22T01:00:15.555Z,977.99
2018-04-22T01:01:15.797Z,977.95
2018-04-22T01:02:16.042Z,977.97
2018-04-22T01:03:16.282Z,977.96
2018-04-22T01:04:16.527Z,977.96
2018-04-22T01:05:16.769Z,977.95
2018-04-22T01:06:17.012Z,977.89
2018-04-22T01:07:17.253Z,977.88
2018-04-22T01:08:17.502Z,977.91
2018-04-22T01:09:17.745Z,977.89
2018-04-22T01:10:17.982Z,977.87
2018-04-22T01:11:18.223Z,977.89
2018-04-22T01:12:18.468Z,977.86
2018-04-22T01:13:18.709Z,977.86
2018-04-22T01:14:18.950Z,977.87
2018-04-22T01:15:19.221Z,977.86
2018-04-22T01:16:19.438Z,977.87
2018-04-22T01:17:19.687Z,977.84
2018-04-22T01:18:19.923Z,977.87
2018-04-22T01:19:20.168Z,977.82
2018-04-22T01:20:20.413Z,977.84
2018-04-22T01:21:20.656Z,977.85
2018-04-22T01:22:20.897Z,977.80
2018-04-22T01:23:21.139Z,977.81
2018-04-22T01:24:21.381Z,977.83
2018-04-22T01:25:21.631Z,977.83
2018-04-22T01:26:21.868Z,977.80
2018-04-22T01:27:22.108Z,977.80
2018-04-22T01:28:22.351Z,977.84
2018-04-22T01:29:22.593Z,977.82
2018-04-22T01:30:22.834Z,977.81
2018-04-22T01:31:23.079Z,977.79
2018-04-22T01:32:23.321Z,977.79
2018-04-22T01:33:23.561Z,977.82
2018-04-22T01:34:23.802Z,977.80
2018-04-22T01:35:24.043Z,977.82
2018-04-22T01:36:24.288Z,977.80
2018-04-22T01:37:24.528Z,977.84
2018-04-22T01:38:24.772Z,977.82
2018-04-22T01:39:25.015Z,977.82
2018-04-22T01:40:25.255Z,977.85
2018-04-22T01:41:25.497Z,977.81
2018-04-22T01:42:25.740Z,977.82
2018-04-22T01:43:25.982Z,977.80
2018-04-22T01:44:26.224Z,977.81
2018-04-22T01:45:26.464Z,977.77
2018-04-22T01:46:26.706Z,977.77
2018-04-22T01:47:26.947Z,977.78
2018-04-22T01:48:27.229Z,977.78
2018-04-22T01:49:27.432Z,977.73
2018-04-22T01:50:27.675Z,977.74
2018-04-22T01:51:27.915Z,977.73
2018-04-22T01:52:28.156Z,977.76
2018-04-22T01:53:28.401Z,977.76
2018-04-22T01:54:28.641Z,977.74
2018-04-22T01:55:28.881Z,977.73
2018-04-22T01:56:29.124Z,977.73
2018-04-22T01:57:29.366Z,977.75
2018-04-22T01:58:29.607Z,977.73
2018-04-22T01:59:29.849Z,977.72
2018-04-22T02:00:30.090Z,977.74
2018-04-22T02:01:30.332Z,977.74
2018-04-22T02:02:30.574Z,977.74
2018-04-22T02:03:30.817Z,977.69
2018-04-22T02:04:31.059Z,977.71
2018-04-22T02:05:31.307Z,977.67
2018-04-22T02:06:31.540Z,977.71
2018-04-22T02:07:31.784Z,977.66
2018-04-22T02:08:32.025Z,977.69
2018-04-22T02:09:32.266Z,977.65
2018-04-22T02:10:32.506Z,977.63
2018-04-22T02:11:32.753Z,977.64
2018-04-22T02:12:32.992Z,977.61
2018-04-22T02:13:33.235Z,977.61
2018-04-22T02:14:33.474Z,977.60
2018-04-22T02:15:33.717Z,977.59
2018-04-22T02:16:33.958Z,977.61
2018-04-22T02:17:34.200Z,977.58
2018-04-22T02:18:34.438Z,977.59
2018-04-22T02:19:34.685Z,977.58
2018-04-22T02:20:34.921Z,977.58
2018-04-22T02:21:35.165Z,977.55
2018-04-22T02:22:35.409Z,977.55
2018-04-22T02:23:35.648Z,977.51
2018-04-22T02:24:35.891Z,977.54
2018-04-22T02:25:36.135Z,977.52
2018-04-22T02:26:36.375Z,977.50
2018-04-22T02:27:36.617Z,977.48
2018-04-22T02:28:36.862Z,977.43
2018-04-22T02:29:37.101Z,977.48
2018-04-22T02:30:37.344Z,977.48
2018-04-22T02:31:37.585Z,977.49
2018-04-22T02:32:37.829Z,977.52
2018-04-22T02:33:38.074Z,977.51
2018-04-22T02:34:38.322Z,977.49
2018-04-22T02:35:38.556Z,977.50
2018-04-22T02:36:38.798Z,977.49
2018-04-22T02:37:39.038Z,977.46
2018-04-22T02:38:39.281Z,977.43
2018-04-22T02:39:39.520Z,977.47
2018-04-22T02:40:39.763Z,977.45
2018-04-22T02:41:40.000Z,977.44
2018-04-22T02:42:40.257Z,977.46
2018-04-22T02:43:40.484Z,977.45
2018-04-22T02:44:40.727Z,977.50
2018-04-22T02:45:40.970Z,977.47
2018-04-22T02:46:41.212Z,977.52
2018-04-22T02:47:41.455Z,977.51
2018-04-22T02:48:41.713Z,977.51
2018-04-22T02:49:41.940Z,977.51
2018-04-22T02:50:42.179Z,977.49
2018-04-22T02:51:42.420Z,977.50
2018-04-22T02:52:42.663Z,977.42
2018-04-22T02:53:42.917Z,977.43
2018-04-22T02:54:43.146Z,977.45
2018-04-22T02:55:43.379Z,977.42
2018-04-22T02:56:43.619Z,977.40
2018-04-22T02:57:43.865Z,977.41
2018-04-22T02:58:44.101Z,977.40
2018-04-22T02:59:44.346Z,977.35
2018-04-22T03:00:44.588Z,977.33
2018-04-22T03:01:44.827Z,977.31
2018-04-22T03:02:45.065Z,977.32
2018-04-22T03:03:45.311Z,977.25
2018-04-22T03:04:45.551Z,977.26
2018-04-22T03:05:45.791Z,977.25
2018-04-22T03:06:46.032Z,977.24
2018-04-22T03:07:46.280Z,977.19
2018-04-22T03:08:46.519Z,977.20
2018-04-22T03:09:46.758Z,977.17
2018-04-22T03:10:47.001Z,977.17
2018-04-22T03:11:47.242Z,977.15
2018-04-22T03:12:47.483Z,977.12
2018-04-22T03:13:47.723Z,977.08
2018-04-22T03:14:47.963Z,977.08
2018-04-22T03:15:48.205Z,977.08
2018-04-22T03:16:48.446Z,977.01
2018-04-22T03:17:48.688Z,977.05
2018-04-22T03:18:48.968Z,977.02
2018-04-22T03:19:49.170Z,977.02
2018-04-22T03:20:49.411Z,976.99
2018-04-22T03:21:49.651Z,976.99
2018-04-22T03:22:49.892Z,976.94
2018-04-22T03:23:50.134Z,976.95
2018-04-22T03:24:50.375Z,976.94
2018-04-22T03:25:50.615Z,976.93
2018-04-22T03:26:50.857Z,976.89
2018-04-22T03:27:51.098Z,976.89
2018-04-22T03:28:51.338Z,976.88
2018-04-22T03:29:51.581Z,976.85
2018-04-22T03:30:51.823Z,976.85
2018-04-22T03:31:52.083Z,976.84
2018-04-22T03:32:52.303Z,976.84
2018-04-22T03:33:52.547Z,976.80
2018-04-22T03:34:52.788Z,976.79
2018-04-22T03:35:53.028Z,976.82
2018-04-22T03:36:53.271Z,976.78
2018-04-22T03:37:53.511Z,976.78
2018-04-22T03:38:53.752Z,976.77
2018-04-22T03:39:53.994Z,976.74
2018-04-22T03:40:54.235Z,976.74
2018-04-22T03:41:54.476Z,976.72
2018-04-22T03:42:54.716Z,976.73
2018-04-22T03:43:54.959Z,976.71
2018-04-22T03:44:55.202Z,976.75
2018-04-22T03:45:55.443Z,976.75
2018-04-22T03:46:55.685Z,976.73
2018-04-22T03:47:55.926Z,976.73
2018-04-22T03:48:56.167Z,976.72
2018-04-22T03:49:56.406Z,976.74
2018-04-22T03:50:56.649Z,976.73
2018-04-22T03:51:56.891Z,976.75
2018-04-22T03:52:57.131Z,976.76
2018-04-22T03:53:57.372Z,976.74
2018-04-22T03:54:57.614Z,976.74
2018-04-22T03:55:57.856Z,976.76
2018-04-22T03:56:58.095Z,976.74
2018-04-22T03:57:58.338Z,976.77
2018-04-22T03:58:58.580Z,976.79
2018-04-22T03:59:58.823Z,976.75
2018-04-22T04:00:59.062Z,976.75
2018-04-22T04:01:59.305Z,976.77
2018-04-22T04:02:59.553Z,976.74
2018-04-22T04:03:59.792Z,976.78
2018-04-22T04:05:00.034Z,976.82
2018-04-22T04:06:00.275Z,976.80
2018-04-22T04:07:00.515Z,976.79
2018-04-22T04:08:00.755Z,976.81
2018-04-22T04:09:00.997Z,976.84
2018-04-22T04:10:01.240Z,976.82
2018-04-22T04:11:01.482Z,976.79
2018-04-22T04:12:01.723Z,976.79
2018-04-22T04:13:01.967Z,976.84
2018-04-22T04:14:02.207Z,976.82
2018-04-22T04:15:02.448Z,976.81
2018-04-22T04:16:02.695Z,976.82
2018-04-22T04:17:02.934Z,976.79
2018-04-22T04:18:03.173Z,976.82
2018-04-22T04:19:03.415Z,976.81
2018-04-22T04:20:03.655Z,976.77
2018-04-22T04:21:03.896Z,976.81
2018-04-22T04:22:04.137Z,976.83
2018-04-22T04:23:04.379Z,976.83
2018-04-22T04:24:04.620Z,976.85
2018-04-22T04:25:04.862Z,976.84
2018-04-22T04:26:05.105Z,976.86
2018-04-22T04:27:05.349Z,976.87
2018-04-22T04:28:05.592Z,976.88
2018-04-22T04:29:05.837Z,976.87
2018-04-22T04:30:06.074Z,976.86
2018-04-22T04:31:06.315Z,976.86
2018-04-22T04:32:06.557Z,976.87
2018-04-22T04:33:06.797Z,976.83
2018-04-22T04:34:07.037Z,976.84
2018-04-22T04:35:07.283Z,976.86
2018-04-22T04:36:07.566Z,976.88
2018-04-22T04:37:07.763Z,976.93
2018-04-22T04:38:08.004Z,976.93
2018-04-22T04:39:08.246Z,976.91
2018-04-22T04:40:08.489Z,976.90
2018-04-22T04:41:08.731Z,976.87
2018-04-22T04:42:08.971Z,976.89
2018-04-22T04:43:09.207Z,976.88
2018-04-22T04:44:09.455Z,976.88
2018-04-22T04:45:09.695Z,976.90
2018-04-22T04:46:09.935Z,976.89
2018-04-22T04:47:10.178Z,976.87
2018-04-22T04:48:10.419Z,976.88
2018-04-22T04:49:10.658Z,976.88
2018-04-22T04:50:10.901Z,976.86
2018-04-22T04:51:11.140Z,976.86
2018-04-22T04:52:11.381Z,976.87
2018-04-22T04:53:11.620Z,976.87
2018-04-22T04:54:11.912Z,976.86
2018-04-22T04:55:12.105Z,976.85
2018-04-22T04:56:12.349Z,976.84
2018-04-22T04:57:12.592Z,976.82
2018-04-22T04:58:12.833Z,976.84
2018-04-22T04:59:13.073Z,976.82
2018-04-22T05:00:13.314Z,976.83
2018-04-22T05:01:13.553Z,976.85
2018-04-22T05:02:13.793Z,976.82
2018-04-22T05:03:14.037Z,976.84
2018-04-22T05:04:14.274Z,976.88
2018-04-22T05:05:14.517Z,976.84
2018-04-22T05:06:14.757Z,976.87
2018-04-22T05:07:15.004Z,976.87
2018-04-22T05:08:15.228Z,976.84
2018-04-22T05:09:15.465Z,976.85
2018-04-22T05:10:15.710Z,976.79
2018-04-22T05:11:15.951Z,976.82
2018-04-22T05:12:16.192Z,976.82
2018-04-22T05:13:16.434Z,976.82
2018-04-22T05:14:16.677Z,976.82
2018-04-22T05:15:16.920Z,976.82
2018-04-22T05:16:17.163Z,976.78
2018-04-22T05:17:17.402Z,976.78
2018-04-22T05:18:17.643Z,976.76
2018-04-22T05:19:17.885Z,976.80
2018-04-22T05:20:18.128Z,976.74
2018-04-22T05:21:18.371Z,976.75
2018-04-22T05:22:18.612Z,976.75
2018-04-22T05:23:18.854Z,976.74
2018-04-22T05:24:19.178Z,976.76
2018-04-22T05:25:19.338Z,976.77
2018-04-22T05:26:19.583Z,976.72
2018-04-22T05:27:19.821Z,976.72
2018-04-22T05:28:20.063Z,976.77
2018-04-22T05:29:20.308Z,976.75
2018-04-22T05:30:20.545Z,976.74
2018-04-22T05:31:20.795Z,976.76
2018-04-22T05:32:21.034Z,976.72
2018-04-22T05:33:21.278Z,976.75
2018-04-22T05:34:21.523Z,976.77
2018-04-22T05:35:21.768Z,976.70
2018-04-22T05:36:22.009Z,976.71
2018-04-22T05:37:22.253Z,976.71
2018-04-22T05:38:22.497Z,976.77
2018-04-22T05:39:22.737Z,976.78
2018-04-22T05:40:22.980Z,976.75
2018-04-22T05:41:23.223Z,976.79
2018-04-22T05:42:23.466Z,976.75
2018-04-22T05:43:23.709Z,976.74
2018-04-22T05:44:23.952Z,976.77
2018-04-22T05:45:24.209Z,976.79
2018-04-22T05:46:24.433Z,976.82
2018-04-22T05:47:24.675Z,976.82
2018-04-22T05:48:24.917Z,976.83
2018-04-22T05:49:25.163Z,976.82
2018-04-22T05:50:25.400Z,976.78
2018-04-22T05:51:25.646Z,976.79
2018-04-22T05:52:25.888Z,976.82
2018-04-22T05:53:26.134Z,976.81
2018-04-22T05:54:26.373Z,976.84
2018-04-22T05:55:26.617Z,976.84
2018-04-22T05:56:26.859Z,976.82
2018-04-22T05:57:27.102Z,976.83
2018-04-22T05:58:27.345Z,976.81
2018-04-22T05:59:27.590Z,976.82
2018-04-22T06:00:27.838Z,976.83
2018-04-22T06:01:28.073Z,976.80
2018-04-22T06:02:28.319Z,976.85
2018-04-22T06:03:28.565Z,976.83
2018-04-22T06:04:28.810Z,976.79
2018-04-22T06:05:29.053Z,976.79
2018-04-22T06:06:29.296Z,976.77
2018-04-22T06:07:29.540Z,976.81
2018-04-22T06:08:29.785Z,976.81
2018-04-22T06:09:30.032Z,976.79
2018-04-22T06:10:30.273Z,976.81
2018-04-22T06:11:30.517Z,976.84
2018-04-22T06:12:30.763Z,976.81
2018-04-22T06:13:31.005Z,976.82
2018-04-22T06:14:31.252Z,976.82
2018-04-22T06:15:31.494Z,976.82
2018-04-22T06:16:31.739Z,976.79
2018-04-22T06:17:31.984Z,976.78
2018-04-22T06:18:32.225Z,976.81
2018-04-22T06:19:32.468Z,976.76
2018-04-22T06:20:32.719Z,976.76
2018-04-22T06:21:33.347Z,976.76
2018-04-22T06:22:33.210Z,976.79
2018-04-22T06:23:33.456Z,976.81
2018-04-22T06:24:33.698Z,976.85
2018-04-22T06:25:33.947Z,976.82
2018-04-22T06:26:34.186Z,976.85
2018-04-22T06:27:34.433Z,976.82
2018-04-22T06:28:34.677Z,976.83
2018-04-22T06:29:34.923Z,976.79
2018-04-22T06:30:35.168Z,976.79
2018-04-22T06:31:35.411Z,976.80
2018-04-22T06:32:35.658Z,976.78
2018-04-22T06:33:35.908Z,976.79
2018-04-22T06:34:36.148Z,976.79
2018-04-22T06:35:36.392Z,976.79
2018-04-22T06:36:36.637Z,976.73
2018-04-22T06:37:36.882Z,976.73
2018-04-22T06:38:37.128Z,976.71
2018-04-22T06:39:37.371Z,976.69
2018-04-22T06:40:37.605Z,976.69
2018-04-22T06:41:37.853Z,976.63
2018-04-22T06:42:38.098Z,976.65
2018-04-22T06:43:38.343Z,976.64
2018-04-22T06:44:38.589Z,976.65
2018-04-22T06:45:38.836Z,976.68
2018-04-22T06:46:39.082Z,976.69
2018-04-22T06:47:39.327Z,976.73
2018-04-22T06:48:39.574Z,976.72
2018-04-22T06:49:39.825Z,976.70
2018-04-22T06:50:40.071Z,976.71
2018-04-22T06:51:40.314Z,976.74
2018-04-22T06:52:40.561Z,976.75
2018-04-22T06:53:40.807Z,976.72
2018-04-22T06:54:41.054Z,976.70
2018-04-22T06:55:41.302Z,976.70
2018-04-22T06:56:41.551Z,976.71
2018-04-22T06:57:41.802Z,976.70
2018-04-22T06:58:42.052Z,976.69
2018-04-22T06:59:42.295Z,976.71
2018-04-22T07:00:42.545Z,976.68
2018-04-22T07:01:42.793Z,976.67
2018-04-22T07:02:43.042Z,976.70
2018-04-22T07:03:43.298Z,976.68
2018-04-22T07:04:43.540Z,976.67
2018-04-22T07:05:43.791Z,976.66
2018-04-22T07:06:44.041Z,976.66
2018-04-22T07:07:44.291Z,976.66
2018-04-22T07:08:44.545Z,976.65
2018-04-22T07:09:44.793Z,976.68
2018-04-22T07:10:45.044Z,976.68
2018-04-22T07:11:45.295Z,976.67
2018-04-22T07:12:45.545Z,976.70
2018-04-22T07:13:45.797Z,976.62
2018-04-22T07:14:46.049Z,976.68
2018-04-22T07:15:46.300Z,976.70
2018-04-22T07:16:46.553Z,976.67
2018-04-22T07:17:46.803Z,976.71
2018-04-22T07:18:47.056Z,976.72
2018-04-22T07:19:47.310Z,976.74
2018-04-22T07:20:47.563Z,976.70
2018-04-22T07:21:47.816Z,976.71
2018-04-22T07:22:48.069Z,976.71
2018-04-22T07:23:48.321Z,976.73
2018-04-22T07:24:48.573Z,976.75
2018-04-22T07:25:48.826Z,976.75
2018-04-22T07:26:49.079Z,976.79
2018-04-22T07:27:49.333Z,976.72
2018-04-22T07:28:49.586Z,976.71
2018-04-22T07:29:49.837Z,976.71
2018-04-22T07:30:51.604Z,976.73
2018-04-22T07:31:50.450Z,976.73
2018-04-22T07:32:50.703Z,976.75
2018-04-22T07:33:50.960Z,976.73
2018-04-22T07:34:51.210Z,976.79
2018-04-22T07:35:51.465Z,976.82
2018-04-22T07:36:51.718Z,976.82
2018-04-22T07:37:51.972Z,976.82
2018-04-22T07:38:52.258Z,976.81
2018-04-22T07:39:52.508Z,976.80
2018-04-22T07:40:52.761Z,976.83
2018-04-22T07:41:53.018Z,976.84
2018-04-22T07:42:53.270Z,976.88
2018-04-22T07:43:53.524Z,976.85
2018-04-22T07:44:53.779Z,976.85
2018-04-22T07:45:54.033Z,976.87
2018-04-22T07:46:54.290Z,976.90
2018-04-22T07:47:54.546Z,976.92
2018-04-22T07:48:54.799Z,976.93
2018-04-22T07:49:55.055Z,976.95
2018-04-22T07:50:55.308Z,976.94
2018-04-22T07:51:55.561Z,976.93
2018-04-22T07:52:55.817Z,976.92
2018-04-22T07:53:56.070Z,976.90
2018-04-22T07:54:56.326Z,976.91
2018-04-22T07:55:56.580Z,976.92
2018-04-22T07:56:56.840Z,976.91
2018-04-22T07:57:57.093Z,976.92
2018-04-22T07:58:57.349Z,976.91
2018-04-22T07:59:57.607Z,976.91
2018-04-22T08:00:57.859Z,976.88
2018-04-22T08:01:58.117Z,976.77
2018-04-22T08:02:58.374Z,976.89
2018-04-22T08:03:58.644Z,976.88
2018-04-22T08:04:58.882Z,976.96
2018-04-22T08:05:59.139Z,977.01
2018-04-22T08:06:59.399Z,977.07
2018-04-22T08:07:59.703Z,976.90
2018-04-22T08:08:59.895Z,976.72
2018-04-22T08:10:00.152Z,976.99
2018-04-22T08:11:00.408Z,976.64
2018-04-22T08:12:00.669Z,976.87
2018-04-22T08:13:00.925Z,977.04
2018-04-22T08:14:01.183Z,976.95
2018-04-22T08:15:01.439Z,976.95
2018-04-22T08:16:01.696Z,977.00
2018-04-22T08:17:01.951Z,976.66
2018-04-22T08:18:02.207Z,976.99
2018-04-22T08:19:02.461Z,976.81
2018-04-22T08:20:02.717Z,976.87
2018-04-22T08:21:02.975Z,976.76
2018-04-22T08:22:03.233Z,976.75
2018-04-22T08:23:03.488Z,976.71
2018-04-22T08:24:03.745Z,976.78
2018-04-22T08:25:04.003Z,976.72
2018-04-22T08:26:04.256Z,976.70
2018-04-22T08:27:04.513Z,976.76
2018-04-22T08:28:04.775Z,976.90
2018-04-22T08:29:05.028Z,976.71
2018-04-22T08:30:05.392Z,976.84
2018-04-22T08:31:05.694Z,976.64
2018-04-22T08:32:05.957Z,976.61
2018-04-22T08:33:06.225Z,976.68
2018-04-22T08:34:06.461Z,976.67
2018-04-22T08:35:06.716Z,976.69
2018-04-22T08:36:06.969Z,976.90
2018-04-22T08:37:07.219Z,976.97
2018-04-22T08:38:07.472Z,977.09
2018-04-22T08:39:07.719Z,977.14
2018-04-22T08:40:07.975Z,977.22
2018-04-22T08:41:08.229Z,977.37
2018-04-22T08:42:08.481Z,977.40
2018-04-22T08:43:08.735Z,977.21
2018-04-22T08:44:08.991Z,977.13
2018-04-22T08:45:09.247Z,977.09
2018-04-22T08:46:09.502Z,977.09
2018-04-22T08:47:09.759Z,977.06
2018-04-22T08:48:10.010Z,977.02
2018-04-22T08:49:10.266Z,977.01
2018-04-22T08:50:10.525Z,977.01
2018-04-22T08:51:10.776Z,976.99
2018-04-22T08:52:11.034Z,976.91
2018-04-22T08:53:11.292Z,976.89
2018-04-22T08:54:11.545Z,976.87
2018-04-22T08:55:11.800Z,976.94
2018-04-22T08:56:12.066Z,976.97
2018-04-22T08:57:12.314Z,977.07
2018-04-22T08:58:12.570Z,977.02
2018-04-22T08:59:12.825Z,977.02
2018-04-22T09:00:13.081Z,977.01
2018-04-22T09:01:13.345Z,977.03
2018-04-22T09:02:13.585Z,977.05
2018-04-22T09:03:13.841Z,977.06
2018-04-22T09:04:14.099Z,977.08
2018-04-22T09:05:14.362Z,977.06
2018-04-22T09:06:14.619Z,977.10
2018-04-22T09:07:14.873Z,977.14
2018-04-22T09:08:15.130Z,977.19
2018-04-22T09:09:15.389Z,977.21
2018-04-22T09:10:15.645Z,977.16
2018-04-22T09:11:15.902Z,977.19
2018-04-22T09:12:16.159Z,977.21
2018-04-22T09:13:16.423Z,977.23
2018-04-22T09:14:16.673Z,977.20
2018-04-22T09:15:16.932Z,977.29
2018-04-22T09:16:17.191Z,977.26
2018-04-22T09:17:17.452Z,977.25
2018-04-22T09:18:17.705Z,977.19
2018-04-22T09:19:17.961Z,977.18
2018-04-22T09:20:18.216Z,977.11
2018-04-22T09:21:18.477Z,977.05
2018-04-22T09:22:18.737Z,977.06
2018-04-22T09:23:18.993Z,977.02
2018-04-22T09:24:19.250Z,976.96
2018-04-22T09:25:19.507Z,976.94
2018-04-22T09:26:19.764Z,976.92
2018-04-22T09:27:20.022Z,977.03
2018-04-22T09:28:20.281Z,977.02
2018-04-22T09:29:20.539Z,977.34
2018-04-22T09:30:20.800Z,977.65
2018-04-22T09:31:21.054Z,977.78
2018-04-22T09:32:21.312Z,977.81
2018-04-22T09:33:21.573Z,977.71
2018-04-22T09:34:21.844Z,977.89
2018-04-22T09:35:22.087Z,978.00
2018-04-22T09:36:22.383Z,977.99
2018-04-22T09:37:22.672Z,977.95
2018-04-22T09:38:22.985Z,977.83
2018-04-22T09:39:23.192Z,977.72
2018-04-22T09:40:23.447Z,977.61
2018-04-22T09:41:23.704Z,977.58
2018-04-22T09:42:23.964Z,977.46
2018-04-22T09:43:24.222Z,977.36
2018-04-22T09:44:24.480Z,977.39
2018-04-22T09:45:24.738Z,977.34
2018-04-22T09:46:25.014Z,977.33
2018-04-22T09:47:25.264Z,977.21
2018-04-22T09:48:25.520Z,977.27
2018-04-22T09:49:25.803Z,977.06
2018-04-22T09:50:26.071Z,977.05
2018-04-22T09:51:26.398Z,976.98
2018-04-22T09:52:26.660Z,977.01
2018-04-22T09:53:27.020Z,976.95
2018-04-22T09:54:27.226Z,976.93
2018-04-22T09:55:27.488Z,976.87
2018-04-22T09:56:27.743Z,976.58
2018-04-22T09:57:28.001Z,976.86
2018-04-22T09:58:28.260Z,976.61
2018-04-22T09:59:28.516Z,976.74
2018-04-22T10:00:28.778Z,976.67
2018-04-22T10:01:29.033Z,976.62
2018-04-22T10:02:29.289Z,976.63
2018-04-22T10:03:29.547Z,976.58
2018-04-22T10:04:29.813Z,976.58
2018-04-22T10:05:30.065Z,976.56
2018-04-22T10:06:30.323Z,976.55
2018-04-22T10:07:30.578Z,976.53
2018-04-22T10:08:30.835Z,976.48
2018-04-22T10:09:31.094Z,976.44
2018-04-22T10:10:31.350Z,976.41
2018-04-22T10:11:31.610Z,976.39
2018-04-22T10:12:31.866Z,976.43
2018-04-22T10:13:32.128Z,976.39
2018-04-22T10:14:32.384Z,976.41
2018-04-22T10:15:32.639Z,976.45
2018-04-22T10:16:32.944Z,976.51
2018-04-22T10:17:33.153Z,976.44
2018-04-22T10:18:33.411Z,976.49
2018-04-22T10:19:33.669Z,976.55
2018-04-22T10:20:33.932Z,976.73
2018-04-22T10:21:34.183Z,976.69
2018-04-22T10:22:34.443Z,976.67
2018-04-22T10:23:34.702Z,976.62
2018-04-22T10:24:34.960Z,976.57
2018-04-22T10:25:35.218Z,976.62
2018-04-22T10:26:35.479Z,976.59
2018-04-22T10:27:35.735Z,976.55
2018-04-22T10:28:35.993Z,976.59
2018-04-22T10:29:36.251Z,976.58
2018-04-22T10:30:36.507Z,976.59
2018-04-22T10:31:36.763Z,976.65
2018-04-22T10:32:37.022Z,976.60
2018-04-22T10:33:37.277Z,976.56
2018-04-22T10:34:37.578Z,976.51
2018-04-22T10:35:37.796Z,976.50
2018-04-22T10:36:38.052Z,976.52
2018-04-22T10:37:38.330Z,976.48
2018-04-22T10:38:38.569Z,976.40
2018-04-22T10:39:38.826Z,976.41
2018-04-22T10:40:39.085Z,976.44
2018-04-22T10:41:39.346Z,976.41
2018-04-22T10:42:39.600Z,976.35
2018-04-22T10:43:39.859Z,976.40
2018-04-22T10:44:40.118Z,976.40
2018-04-22T10:45:40.378Z,976.44
2018-04-22T10:46:40.689Z,976.41
2018-04-22T10:47:40.898Z,976.40
2018-04-22T10:48:41.156Z,976.46
2018-04-22T10:49:41.424Z,976.48
2018-04-22T10:50:41.673Z,976.45
2018-04-22T10:51:41.932Z,976.39
2018-04-22T10:52:42.189Z,976.38
2018-04-22T10:53:42.446Z,976.34
2018-04-22T10:54:42.701Z,976.32
2018-04-22T10:55:42.963Z,976.32
2018-04-22T10:56:43.216Z,976.36
2018-04-22T10:57:43.476Z,976.34
2018-04-22T10:58:43.732Z,976.25
2018-04-22T10:59:43.989Z,976.08
2018-04-22T11:00:44.247Z,975.94
2018-04-22T11:01:44.511Z,975.82
2018-04-22T11:02:44.764Z,975.78
2018-04-22T11:03:45.085Z,975.72
2018-04-22T11:04:45.349Z,975.70
2018-04-22T11:05:45.610Z,975.70
2018-04-22T11:06:45.863Z,975.70
2018-04-22T11:07:46.119Z,975.74
2018-04-22T11:08:46.379Z,975.77
2018-04-22T11:09:46.634Z,975.68
2018-04-22T11:10:46.893Z,975.69
2018-04-22T11:11:47.156Z,975.63
2018-04-22T11:12:47.409Z,975.61
2018-04-22T11:13:47.666Z,975.58
2018-04-22T11:14:47.924Z,975.58
2018-04-22T11:15:48.181Z,975.56
2018-04-22T11:16:48.441Z,975.55
2018-04-22T11:17:48.694Z,975.45
2018-04-22T11:18:48.953Z,975.58
2018-04-22T11:19:49.213Z,975.67
2018-04-22T11:20:49.469Z,975.67
2018-04-22T11:21:49.728Z,975.63
2018-04-22T11:22:49.990Z,975.62
2018-04-22T11:23:50.245Z,975.64
2018-04-22T11:24:50.501Z,975.69
2018-04-22T11:25:50.758Z,975.47
2018-04-22T11:26:51.016Z,975.54
2018-04-22T11:27:51.273Z,975.54
2018-04-22T11:28:51.532Z,975.49
2018-04-22T11:29:51.790Z,975.88
2018-04-22T11:30:52.051Z,975.90
2018-04-22T11:31:52.304Z,975.74
2018-04-22T11:32:52.567Z,975.60
2018-04-22T11:33:52.821Z,975.53
2018-04-22T11:34:53.080Z,975.49
2018-04-22T11:35:53.338Z,975.54
2018-04-22T11:36:53.595Z,975.55
2018-04-22T11:37:53.854Z,975.53
2018-04-22T11:38:54.109Z,975.51
2018-04-22T11:39:54.369Z,975.54
2018-04-22T11:40:54.625Z,975.32
2018-04-22T11:41:54.883Z,975.44
2018-04-22T11:42:55.144Z,975.46
2018-04-22T11:43:55.404Z,975.42
2018-04-22T11:44:55.665Z,975.55
2018-04-22T11:45:55.919Z,975.45
2018-04-22T11:46:56.177Z,975.37
2018-04-22T11:47:56.434Z,975.36
2018-04-22T11:48:56.691Z,975.38
2018-04-22T11:49:56.951Z,975.38
2018-04-22T11:50:57.211Z,975.36
2018-04-22T11:51:57.467Z,975.36
2018-04-22T11:52:57.726Z,975.39
2018-04-22T11:53:57.985Z,975.40
2018-04-22T11:54:58.243Z,975.42
2018-04-22T11:55:58.501Z,975.39
2018-04-22T11:56:58.761Z,975.20
2018-04-22T11:57:59.017Z,975.16
2018-04-22T11:58:59.274Z,975.14
2018-04-22T11:59:59.580Z,975.24
2018-04-22T12:00:59.801Z,975.15
2018-04-22T12:02:00.051Z,975.06
2018-04-22T12:03:00.308Z,975.03
2018-04-22T12:04:00.567Z,975.02
2018-04-22T12:05:00.823Z,975.09
2018-04-22T12:06:01.080Z,975.24
2018-04-22T12:07:01.338Z,975.35
2018-04-22T12:08:01.598Z,975.21
2018-04-22T12:09:01.845Z,975.17
2018-04-22T12:10:02.118Z,975.25
2018-04-22T12:11:02.374Z,975.02
2018-04-22T12:12:02.631Z,975.07
2018-04-22T12:13:02.888Z,975.19
2018-04-22T12:14:03.147Z,975.16
2018-04-22T12:15:03.402Z,974.78
2018-04-22T12:16:03.660Z,974.71
2018-04-22T12:17:03.916Z,974.72
2018-04-22T12:18:04.171Z,974.74
2018-04-22T12:19:04.430Z,974.88
2018-04-22T12:20:04.684Z,974.87
2018-04-22T12:21:04.942Z,974.91
2018-04-22T12:22:05.198Z,974.89
2018-04-22T12:23:05.455Z,974.89
2018-04-22T12:24:05.712Z,974.90
2018-04-22T12:25:05.967Z,975.05
2018-04-22T12:26:06.226Z,975.07
2018-04-22T12:27:06.484Z,975.06
2018-04-22T12:28:06.742Z,975.01
2018-04-22T12:29:06.999Z,974.98
2018-04-22T12:30:07.266Z,974.87
2018-04-22T12:31:07.513Z,974.85